createdAt,value
2022-09-23T00:01:24.283Z,97724.95
2022-09-23T00:03:52.353Z,97718.68
2022-09-23T00:06:22.797Z,97728.03
2022-09-23T00:08:51.823Z,97723.61
2022-09-23T00:11:25.650Z,97728.31
2022-09-23T00:13:56.745Z,97728.05
2022-09-23T00:16:34.682Z,97720.80
2022-09-23T00:19:04.059Z,97720.34
2022-09-23T00:21:31.818Z,97711.29
2022-09-23T00:23:59.619Z,97707.97
2022-09-23T00:26:27.449Z,97707.12
2022-09-23T00:28:55.099Z,97706.00
2022-09-23T00:31:25.926Z,97712.81
2022-09-23T00:33:59.857Z,97709.14
2022-09-23T00:36:29.093Z,97712.92
2022-09-23T00:38:56.816Z,97711.45
2022-09-23T00:41:25.451Z,97715.97
2022-09-23T00:43:59.296Z,97711.49
2022-09-23T00:46:40.176Z,97713.27
2022-09-23T00:49:29.139Z,97713.09
2022-09-23T00:52:05.176Z,97708.80
2022-09-23T00:54:33.477Z,97708.80
2022-09-23T00:57:04.122Z,97706.41
2022-09-23T00:59:32.760Z,97712.11
2022-09-23T01:02:02.725Z,97716.53
2022-09-23T01:04:31.397Z,97718.26
2022-09-23T01:06:59.113Z,97720.48
2022-09-23T01:09:27.121Z,97720.48
2022-09-23T01:12:12.109Z,97718.26
2022-09-23T01:15:12.416Z,97719.84
2022-09-23T01:18:09.955Z,97720.59
2022-09-23T01:20:55.975Z,97715.42
2022-09-23T01:24:17.723Z,97721.56
2022-09-23T01:27:16.194Z,97722.31
2022-09-23T01:30:32.494Z,97719.47
2022-09-23T01:33:12.032Z,97727.33
2022-09-23T01:35:48.645Z,97724.73
2022-09-23T01:38:54.121Z,97730.73
2022-09-23T01:41:41.041Z,97727.04
2022-09-23T01:44:38.702Z,97731.45
2022-09-23T01:47:17.477Z,97725.98
2022-09-23T01:50:29.567Z,97727.46
2022-09-23T01:53:08.553Z,97726.20
2022-09-23T01:55:44.687Z,97724.72
2022-09-23T01:58:20.695Z,97727.43
2022-09-23T02:00:57.083Z,97726.31
2022-09-23T02:03:32.930Z,97733.92
2022-09-23T02:06:14.879Z,97732.84
2022-09-23T02:08:55.458Z,97728.78
2022-09-23T02:11:24.293Z,97735.78
2022-09-23T02:14:09.328Z,97740.62
2022-09-23T02:16:51.072Z,97737.45
2022-09-23T02:19:24.277Z,97738.55
2022-09-23T02:21:58.427Z,97736.48
2022-09-23T02:24:31.468Z,97741.95
2022-09-23T02:27:07.339Z,97739.30
2022-09-23T02:29:58.218Z,97738.05
2022-09-23T02:32:43.172Z,97741.04
2022-09-23T02:35:36.727Z,97744.06
2022-09-23T02:38:44.665Z,97744.51
2022-09-23T02:41:29.517Z,97746.18
2022-09-23T02:44:05.731Z,97751.35
2022-09-23T02:46:33.932Z,97754.67
2022-09-23T02:49:10.774Z,97747.17
2022-09-23T02:51:40.272Z,97747.49
2022-09-23T02:54:16.403Z,97740.17
2022-09-23T02:56:43.745Z,97747.41
2022-09-23T02:59:12.534Z,97745.44
2022-09-23T03:02:11.214Z,97749.91
2022-09-23T03:05:22.800Z,97747.01
2022-09-23T03:08:19.058Z,97743.63
2022-09-23T03:11:04.735Z,97741.57
2022-09-23T03:13:56.256Z,97746.54
2022-09-23T03:16:44.012Z,97744.63
2022-09-23T03:19:34.429Z,97738.56
2022-09-23T03:22:28.101Z,97743.98
2022-09-23T03:25:03.613Z,97743.13
2022-09-23T03:27:34.524Z,97740.48
2022-09-23T03:30:05.243Z,97743.52
2022-09-23T03:32:34.744Z,97735.22
2022-09-23T03:35:05.504Z,97735.78
2022-09-23T03:37:41.496Z,97735.84
2022-09-23T03:40:28.996Z,97740.22
2022-09-23T03:42:58.294Z,97740.05
2022-09-23T03:45:34.164Z,97739.02
2022-09-23T03:48:02.028Z,97734.69
2022-09-23T03:50:30.270Z,97730.96
2022-09-23T03:52:58.827Z,97734.22
2022-09-23T03:55:26.491Z,97735.34
2022-09-23T03:57:55.064Z,97741.83
2022-09-23T04:00:22.664Z,97739.13
2022-09-23T04:02:50.474Z,97729.52
2022-09-23T04:05:18.668Z,97736.02
2022-09-23T04:07:47.597Z,97728.22
2022-09-23T04:10:15.404Z,97731.78
2022-09-23T04:12:42.981Z,97729.34
2022-09-23T04:15:10.742Z,97727.34
2022-09-23T04:17:38.259Z,97729.93
2022-09-23T04:20:07.033Z,97726.84
2022-09-23T04:22:34.932Z,97730.25
2022-09-23T04:25:02.865Z,97728.52
2022-09-23T04:27:34.233Z,97727.89
2022-09-23T04:29:59.633Z,97728.63
2022-09-23T04:32:27.123Z,97726.01
2022-09-23T04:34:54.948Z,97725.09
2022-09-23T04:37:22.264Z,97726.36
2022-09-23T04:39:49.728Z,97726.85
2022-09-23T04:42:17.057Z,97727.88
2022-09-23T04:44:44.420Z,97717.84
2022-09-23T04:47:11.995Z,97724.61
2022-09-23T04:49:40.226Z,97725.97
2022-09-23T04:52:07.868Z,97732.97
2022-09-23T04:54:36.288Z,97732.97
2022-09-23T04:57:04.131Z,97721.91
2022-09-23T04:59:31.576Z,97730.12
2022-09-23T05:01:59.138Z,97729.06
2022-09-23T05:04:26.886Z,97735.03
2022-09-23T05:06:54.471Z,97737.27
2022-09-23T05:09:21.951Z,97733.67
2022-09-23T05:11:49.713Z,97729.95
2022-09-23T05:14:17.509Z,97729.95
2022-09-23T05:16:45.317Z,97732.00
2022-09-23T05:19:13.005Z,97731.70
2022-09-23T05:21:40.528Z,97741.41
2022-09-23T05:24:09.241Z,97732.73
2022-09-23T05:26:36.795Z,97738.64
2022-09-23T05:29:04.483Z,97744.29
2022-09-23T05:31:32.258Z,97744.52
2022-09-23T05:34:03.426Z,97744.22
2022-09-23T05:36:37.934Z,97743.31
2022-09-23T05:39:04.828Z,97743.16
2022-09-23T05:41:33.372Z,97745.70
2022-09-23T05:44:01.397Z,97752.81
2022-09-23T05:46:30.923Z,97755.36
2022-09-23T05:49:02.895Z,97757.91
2022-09-23T05:51:31.648Z,97755.47
2022-09-23T05:54:02.367Z,97758.17
2022-09-23T05:56:31.299Z,97762.14
2022-09-23T05:59:01.294Z,97761.45
2022-09-23T06:01:33.153Z,97768.05
2022-09-23T06:04:02.828Z,97761.75
2022-09-23T06:06:38.167Z,97760.79
2022-09-23T06:09:09.261Z,97762.80
2022-09-23T06:11:37.155Z,97765.50
2022-09-23T06:14:05.387Z,97770.88
2022-09-23T06:16:35.108Z,97765.38
2022-09-23T06:19:05.799Z,97768.16
2022-09-23T06:21:37.865Z,97767.02
2022-09-23T06:24:10.557Z,97773.31
2022-09-23T06:26:39.516Z,97767.14
2022-09-23T06:29:13.926Z,97764.52
2022-09-23T06:31:42.698Z,97762.61
2022-09-23T06:34:13.773Z,97760.14
2022-09-23T06:36:45.359Z,97764.52
2022-09-23T06:39:14.720Z,97764.81
2022-09-23T06:41:44.245Z,97763.97
2022-09-23T06:44:15.443Z,97760.61
2022-09-23T06:46:43.614Z,97765.92
2022-09-23T06:49:12.508Z,97774.13
2022-09-23T06:51:40.793Z,97770.80
2022-09-23T06:54:08.915Z,97772.48
2022-09-23T06:56:39.372Z,97778.99
2022-09-23T06:59:09.296Z,97775.33
2022-09-23T07:01:37.734Z,97780.89
2022-09-23T07:04:06.949Z,97774.05
2022-09-23T07:06:34.619Z,97782.46
2022-09-23T07:09:02.802Z,97777.22
2022-09-23T07:11:30.312Z,97780.42
2022-09-23T07:13:58.238Z,97783.25
2022-09-23T07:16:25.969Z,97787.31
2022-09-23T07:18:54.908Z,97785.73
2022-09-23T07:21:22.442Z,97783.91
2022-09-23T07:23:51.293Z,97785.84
2022-09-23T07:26:20.377Z,97789.79
2022-09-23T07:28:56.397Z,97791.85
2022-09-23T07:31:35.400Z,97791.88
2022-09-23T07:33:57.218Z,97798.37
2022-09-23T07:36:27.127Z,97791.75
2022-09-23T07:38:57.479Z,97795.17
2022-09-23T07:41:25.543Z,97795.61
2022-09-23T07:43:57.267Z,97786.80
2022-09-23T07:46:28.442Z,97783.65
2022-09-23T07:48:56.138Z,97786.38
2022-09-23T07:51:36.027Z,97794.50
2022-09-23T07:54:01.909Z,97791.64
2022-09-23T07:56:30.486Z,97788.31
2022-09-23T07:59:03.136Z,97793.64
2022-09-23T08:01:40.765Z,97795.05
2022-09-23T08:04:13.903Z,97794.54
2022-09-23T08:06:48.582Z,97792.64
2022-09-23T08:09:19.511Z,97798.06
2022-09-23T08:11:50.293Z,97794.80
2022-09-23T08:14:18.110Z,97794.80
2022-09-23T08:16:47.090Z,97789.31
2022-09-23T08:19:15.420Z,97800.77
2022-09-23T08:21:46.401Z,97788.91
2022-09-23T08:24:18.033Z,97790.66
2022-09-23T08:26:47.185Z,97793.84
2022-09-23T08:29:17.500Z,97796.39
2022-09-23T08:31:45.734Z,97796.27
2022-09-23T08:34:13.661Z,97791.94
2022-09-23T08:36:41.303Z,97795.08
2022-09-23T08:39:16.563Z,97794.91
2022-09-23T08:41:57.492Z,97798.81
2022-09-23T08:44:29.950Z,97790.29
2022-09-23T08:47:11.430Z,97790.19
2022-09-23T08:50:03.123Z,97787.02
2022-09-23T08:52:41.503Z,97789.16
2022-09-23T08:55:13.976Z,97788.13
2022-09-23T08:58:26.022Z,97782.72
2022-09-23T09:01:40.758Z,97783.19
2022-09-23T09:04:28.425Z,97778.73
2022-09-23T09:09:53.323Z,97775.06
2022-09-23T09:12:43.321Z,97772.69
2022-09-23T09:15:26.194Z,97769.81
2022-09-23T09:18:13.043Z,97769.01
2022-09-23T09:21:09.825Z,97778.24
2022-09-23T09:23:59.559Z,97772.73
2022-09-23T09:26:34.280Z,97769.21
2022-09-23T09:29:34.967Z,97762.11
2022-09-23T09:31:56.412Z,97760.80
2022-09-23T09:34:46.798Z,97757.91
2022-09-23T09:37:35.425Z,97755.50
2022-09-23T09:40:04.381Z,97758.78
2022-09-23T09:42:47.470Z,97753.92
2022-09-23T09:45:44.539Z,97754.63
2022-09-23T09:48:32.876Z,97756.45
2022-09-23T09:51:22.939Z,97769.03
2022-09-23T09:53:55.597Z,97769.19
2022-09-23T09:56:31.681Z,97764.36
2022-09-23T09:59:03.650Z,97772.83
2022-09-23T10:01:34.246Z,97772.59
2022-09-23T10:04:22.014Z,97769.27
2022-09-23T10:07:15.523Z,97772.29
2022-09-23T10:09:51.756Z,97761.29
2022-09-23T10:12:22.579Z,97764.28
2022-09-23T10:14:57.295Z,97766.81
2022-09-23T10:17:36.066Z,97763.86
2022-09-23T10:20:09.747Z,97765.27
2022-09-23T10:22:41.373Z,97754.05
2022-09-23T10:25:24.082Z,97759.06
2022-09-23T10:27:51.602Z,97753.03
2022-09-23T10:30:26.958Z,97750.91
2022-09-23T10:32:56.448Z,97752.27
2022-09-23T10:35:26.079Z,97749.66
2022-09-23T10:37:59.405Z,97744.60
2022-09-23T10:40:56.371Z,97741.19
2022-09-23T10:43:54.155Z,97734.98
2022-09-23T10:46:45.174Z,97728.05
2022-09-23T10:49:27.256Z,97730.56
2022-09-23T10:52:38.711Z,97728.20
2022-09-23T10:55:53.210Z,97728.07
2022-09-23T10:58:35.024Z,97723.05
2022-09-23T11:01:25.026Z,97729.72
2022-09-23T11:04:26.391Z,97728.11
2022-09-23T11:07:02.351Z,97728.20
2022-09-23T11:09:47.174Z,97721.46
2022-09-23T11:12:44.488Z,97719.75
2022-09-23T11:15:30.669Z,97712.03
2022-09-23T11:18:38.566Z,97708.75
2022-09-23T11:21:38.504Z,97699.99
2022-09-23T11:24:34.646Z,97703.62
2022-09-23T11:27:36.445Z,97703.21
2022-09-23T11:30:13.962Z,97704.36
2022-09-23T11:33:13.704Z,97704.16
2022-09-23T11:35:49.535Z,97709.03
2022-09-23T11:38:27.129Z,97701.88
2022-09-23T11:41:23.206Z,97712.16
2022-09-23T11:44:04.499Z,97706.37
2022-09-23T11:46:52.394Z,97700.48
2022-09-23T11:49:39.915Z,97700.05
2022-09-23T11:52:35.564Z,97691.31
2022-09-23T11:55:19.217Z,97689.82
2022-09-23T11:57:53.930Z,97686.23
2022-09-23T12:00:24.692Z,97673.97
2022-09-23T12:03:29.722Z,97679.20
2022-09-23T12:05:58.462Z,97675.30
2022-09-23T12:08:32.633Z,97679.14
2022-09-23T12:11:39.483Z,97673.94
2022-09-23T12:14:37.961Z,97678.94
2022-09-23T12:17:47.045Z,97669.19
2022-09-23T12:20:44.080Z,97664.65
2022-09-23T12:23:44.579Z,97670.69
2022-09-23T12:26:19.812Z,97669.42
2022-09-23T12:28:50.831Z,97661.95
2022-09-23T12:31:25.139Z,97668.89
2022-09-23T12:33:54.177Z,97667.39
2022-09-23T12:36:34.905Z,97668.77
2022-09-23T12:39:17.514Z,97663.77
2022-09-23T12:41:48.670Z,97662.71
2022-09-23T12:44:40.120Z,97653.48
2022-09-23T12:47:23.804Z,97656.41
2022-09-23T12:49:53.049Z,97655.22
2022-09-23T12:52:30.985Z,97655.16
2022-09-23T12:55:12.879Z,97654.11
2022-09-23T12:57:41.751Z,97647.41
2022-09-23T13:00:23.278Z,97648.36
2022-09-23T13:03:17.311Z,97652.06
2022-09-23T13:06:11.276Z,97638.74
2022-09-23T13:08:41.887Z,97648.32
2022-09-23T13:11:26.940Z,97647.66
2022-09-23T13:13:59.852Z,97651.74
2022-09-23T13:16:34.103Z,97649.70
2022-09-23T13:19:05.439Z,97651.19
2022-09-23T13:21:49.248Z,97646.74
2022-09-23T13:24:33.595Z,97639.51
2022-09-23T13:27:18.612Z,97644.94
2022-09-23T13:30:07.144Z,97639.16
2022-09-23T13:32:43.061Z,97647.55
2022-09-23T13:35:33.819Z,97635.86
2022-09-23T13:38:11.333Z,97634.06
2022-09-23T13:40:41.302Z,97637.59
2022-09-23T13:43:33.534Z,97632.47
2022-09-23T13:46:04.436Z,97638.94
2022-09-23T13:48:32.594Z,97636.09
2022-09-23T13:51:06.426Z,97632.47
2022-09-23T13:53:34.087Z,97625.83
2022-09-23T13:56:06.571Z,97629.20
2022-09-23T13:58:35.772Z,97629.63
2022-09-23T14:01:23.959Z,97627.28
2022-09-23T14:03:51.596Z,97629.47
2022-09-23T14:06:19.286Z,97624.91
2022-09-23T14:08:49.656Z,97634.12
2022-09-23T14:11:21.978Z,97638.34
2022-09-23T14:13:54.463Z,97632.98
2022-09-23T14:16:25.744Z,97633.28
2022-09-23T14:18:59.970Z,97626.70
2022-09-23T14:21:39.155Z,97618.98
2022-09-23T14:24:20.814Z,97622.34
2022-09-23T14:27:07.662Z,97620.72
2022-09-23T14:29:42.300Z,97617.06
2022-09-23T14:32:15.779Z,97610.70
2022-09-23T14:35:03.925Z,97615.64
2022-09-23T14:38:01.536Z,97617.42
2022-09-23T14:40:37.198Z,97620.97
2022-09-23T14:43:22.677Z,97623.86
2022-09-23T14:45:54.664Z,97623.41
2022-09-23T14:48:29.843Z,97632.14
2022-09-23T14:51:07.455Z,97627.44
2022-09-23T14:53:40.540Z,97633.36
2022-09-23T14:56:19.963Z,97636.34
2022-09-23T14:58:57.985Z,97630.94
2022-09-23T15:01:38.609Z,97632.20
2022-09-23T15:04:23.445Z,97627.12
2022-09-23T15:07:02.107Z,97630.67
2022-09-23T15:09:35.049Z,97630.35
2022-09-23T15:12:15.660Z,97630.41
2022-09-23T15:14:49.300Z,97631.77
2022-09-23T15:17:32.049Z,97631.13
2022-09-23T15:20:17.294Z,97629.86
2022-09-23T15:22:53.304Z,97629.07
2022-09-23T15:25:39.555Z,97626.56
2022-09-23T15:28:18.485Z,97628.53
2022-09-23T15:30:46.417Z,97626.27
2022-09-23T15:33:15.855Z,97625.32
2022-09-23T15:35:47.977Z,97626.45
2022-09-23T15:38:17.063Z,97631.41
2022-09-23T15:40:44.948Z,97624.93
2022-09-23T15:43:21.412Z,97629.87
2022-09-23T15:45:58.747Z,97628.83
2022-09-23T15:48:32.034Z,97632.19
2022-09-23T15:51:03.096Z,97636.00
2022-09-23T15:53:31.005Z,97635.30
2022-09-23T15:55:59.549Z,97637.31
2022-09-23T15:58:27.028Z,97634.94
2022-09-23T16:00:57.022Z,97631.66
2022-09-23T16:03:28.951Z,97631.43
2022-09-23T16:06:01.848Z,97638.56
2022-09-23T16:08:32.167Z,97643.42
2022-09-23T16:10:59.776Z,97644.44
2022-09-23T16:13:27.526Z,97640.23
2022-09-23T16:15:55.733Z,97639.30
2022-09-23T16:18:22.892Z,97643.80
2022-09-23T16:20:50.668Z,97642.66
2022-09-23T16:23:33.605Z,97645.14
2022-09-23T16:26:09.449Z,97644.21
2022-09-23T16:28:37.291Z,97645.87
2022-09-23T16:31:05.238Z,97650.74
2022-09-23T16:33:33.492Z,97643.73
2022-09-23T16:36:01.697Z,97643.28
2022-09-23T16:38:33.747Z,97641.67
2022-09-23T16:41:02.483Z,97640.73
2022-09-23T16:43:31.999Z,97649.88
2022-09-23T16:45:59.567Z,97648.86
2022-09-23T16:48:27.251Z,97655.16
2022-09-23T16:50:54.652Z,97652.70
2022-09-23T16:53:23.205Z,97651.80
2022-09-23T16:55:52.695Z,97656.58
2022-09-23T16:58:20.132Z,97656.48
2022-09-23T17:01:06.388Z,97653.66
2022-09-23T17:03:40.310Z,97656.42
2022-09-23T17:06:12.979Z,97662.00
2022-09-23T17:08:41.904Z,97659.16
2022-09-23T17:11:10.387Z,97663.94
2022-09-23T17:13:40.001Z,97673.22
2022-09-23T17:16:08.149Z,97672.59
2022-09-23T17:18:35.973Z,97674.16
2022-09-23T17:21:06.919Z,97682.73
2022-09-23T17:23:36.475Z,97679.22
2022-09-23T17:26:12.012Z,97684.59
2022-09-23T17:28:39.328Z,97683.05
2022-09-23T17:31:08.138Z,97685.17
2022-09-23T17:33:38.922Z,97689.48
2022-09-23T17:36:10.221Z,97682.48
2022-09-23T17:38:41.276Z,97693.75
2022-09-23T17:41:09.511Z,97697.14
2022-09-23T17:43:39.230Z,97693.71
2022-09-23T17:46:12.448Z,97687.12
2022-09-23T17:48:42.774Z,97690.32
2022-09-23T17:51:18.340Z,97696.23
2022-09-23T17:53:47.798Z,97694.34
2022-09-23T17:56:22.134Z,97690.69
2022-09-23T17:58:50.048Z,97697.23
2022-09-23T18:01:24.599Z,97697.41
2022-09-23T18:04:00.413Z,97698.05
2022-09-23T18:06:35.042Z,97699.36
2022-09-23T18:09:06.552Z,97701.75
2022-09-23T18:11:38.425Z,97703.11
2022-09-23T18:14:19.537Z,97703.97
2022-09-23T18:16:50.327Z,97700.80
2022-09-23T18:19:21.020Z,97705.27
2022-09-23T18:21:55.620Z,97716.28
2022-09-23T18:24:32.764Z,97708.06
2022-09-23T18:26:55.258Z,97713.66
2022-09-23T18:29:22.697Z,97710.78
2022-09-23T18:31:50.462Z,97710.85
2022-09-23T18:34:18.349Z,97706.72
2022-09-23T18:36:46.412Z,97703.27
2022-09-23T18:39:14.924Z,97706.87
2022-09-23T18:41:42.670Z,97712.91
2022-09-23T18:44:10.366Z,97704.64
2022-09-23T18:46:38.407Z,97706.05
2022-09-23T18:49:24.503Z,97708.13
2022-09-23T18:51:57.132Z,97708.13
2022-09-23T18:54:28.469Z,97705.57
2022-09-23T18:56:57.183Z,97711.84
2022-09-23T18:59:28.136Z,97708.82
2022-09-23T19:01:57.484Z,97707.13
2022-09-23T19:04:27.129Z,97709.05
2022-09-23T19:06:56.048Z,97707.77
2022-09-23T19:09:23.871Z,97711.14
2022-09-23T19:11:52.091Z,97709.94
2022-09-23T19:14:20.270Z,97711.88
2022-09-23T19:16:50.923Z,97710.20
2022-09-23T19:19:18.655Z,97703.93
2022-09-23T19:21:46.247Z,97702.75
2022-09-23T19:24:16.379Z,97711.17
2022-09-23T19:26:43.902Z,97705.99
2022-09-23T19:29:18.834Z,97709.89
2022-09-23T19:31:46.376Z,97712.47
2022-09-23T19:34:18.284Z,97720.66
2022-09-23T19:36:47.495Z,97721.92
2022-09-23T19:39:19.715Z,97719.47
2022-09-23T19:41:48.351Z,97719.93
2022-09-23T19:44:16.602Z,97719.13
2022-09-23T19:46:51.913Z,97716.32
2022-09-23T19:49:18.285Z,97708.83
2022-09-23T19:51:46.747Z,97716.48
2022-09-23T19:54:21.356Z,97717.30
2022-09-23T19:56:49.393Z,97716.34
2022-09-23T19:59:19.202Z,97720.32
2022-09-23T20:01:48.528Z,97722.06
2022-09-23T20:04:16.721Z,97724.36
2022-09-23T20:06:47.801Z,97727.05
2022-09-23T20:09:15.424Z,97727.16
2022-09-23T20:11:43.636Z,97725.73
2022-09-23T20:14:12.451Z,97721.49
2022-09-23T20:16:40.250Z,97726.34
2022-09-23T20:19:11.511Z,97726.34
2022-09-23T20:21:39.087Z,97725.96
2022-09-23T20:24:08.834Z,97732.34
2022-09-23T20:26:55.315Z,97732.84
2022-09-23T20:29:23.247Z,97735.84
2022-09-23T20:31:50.703Z,97735.45
2022-09-23T20:34:18.092Z,97737.16
2022-09-23T20:36:45.402Z,97734.06
2022-09-23T20:39:12.914Z,97734.00
2022-09-23T20:41:41.154Z,97736.94
2022-09-23T20:44:14.230Z,97745.63
2022-09-23T20:46:48.528Z,97739.41
2022-09-23T20:49:16.725Z,97741.33
2022-09-23T20:51:44.464Z,97740.50
2022-09-23T20:54:11.981Z,97742.74
2022-09-23T20:56:39.830Z,97743.36
2022-09-23T20:59:09.394Z,97739.92
2022-09-23T21:01:36.976Z,97743.39
2022-09-23T21:04:05.292Z,97735.42
2022-09-23T21:06:36.006Z,97748.72
2022-09-23T21:09:05.441Z,97747.98
2022-09-23T21:11:33.376Z,97753.39
2022-09-23T21:14:01.631Z,97747.56
2022-09-23T21:16:30.011Z,97752.80
2022-09-23T21:18:59.289Z,97756.38
2022-09-23T21:21:27.234Z,97748.65
2022-09-23T21:23:58.214Z,97752.44
2022-09-23T21:26:26.110Z,97757.14
2022-09-23T21:28:58.358Z,97757.52
2022-09-23T21:31:33.143Z,97756.54
2022-09-23T21:34:04.185Z,97756.83
2022-09-23T21:36:38.115Z,97754.27
2022-09-23T21:39:08.798Z,97754.27
2022-09-23T21:41:36.922Z,97759.11
2022-09-23T21:44:07.676Z,97757.39
2022-09-23T21:46:35.731Z,97759.72
2022-09-23T21:49:04.503Z,97761.75
2022-09-23T21:51:40.097Z,97758.59
2022-09-23T21:54:14.952Z,97757.59
2022-09-23T21:56:43.868Z,97756.33
2022-09-23T21:59:11.272Z,97745.69
2022-09-23T22:01:43.100Z,97744.59
2022-09-23T22:04:17.922Z,97745.86
2022-09-23T22:06:46.243Z,97745.39
2022-09-23T22:09:18.123Z,97747.13
2022-09-23T22:12:04.834Z,97742.02
2022-09-23T22:14:33.156Z,97738.52
2022-09-23T22:17:03.187Z,97738.84
2022-09-23T22:19:35.529Z,97740.48
2022-09-23T22:22:13.574Z,97741.83
2022-09-23T22:24:42.606Z,97744.06
2022-09-23T22:27:12.124Z,97735.95
2022-09-23T22:29:58.166Z,97740.62
2022-09-23T22:32:41.217Z,97741.42
2022-09-23T22:35:11.578Z,97740.95
2022-09-23T22:37:39.095Z,97736.10
2022-09-23T22:40:10.899Z,97742.59
2022-09-23T22:42:38.821Z,97742.12
2022-09-23T22:45:08.757Z,97746.56
2022-09-23T22:47:39.131Z,97745.82
2022-09-23T22:50:09.267Z,97746.20
2022-09-23T22:52:37.203Z,97750.63
2022-09-23T22:55:07.512Z,97747.33
2022-09-23T22:57:36.095Z,97748.02
2022-09-23T23:00:06.628Z,97754.09
2022-09-23T23:02:34.594Z,97757.16
2022-09-23T23:05:02.402Z,97758.28
2022-09-23T23:07:29.792Z,97751.47
2022-09-23T23:09:57.583Z,97757.06
2022-09-23T23:12:25.201Z,97756.42
2022-09-23T23:14:52.611Z,97758.52
2022-09-23T23:17:21.415Z,97759.02
2022-09-23T23:19:50.104Z,97759.25
2022-09-23T23:22:17.897Z,97766.25
2022-09-23T23:24:45.711Z,97762.19
2022-09-23T23:27:13.266Z,97758.75
2022-09-23T23:29:40.580Z,97757.16
2022-09-23T23:32:09.187Z,97753.98
2022-09-23T23:34:37.166Z,97756.19
2022-09-23T23:37:05.096Z,97755.20
2022-09-23T23:39:34.481Z,97755.89
2022-09-23T23:42:03.923Z,97753.01
2022-09-23T23:44:33.450Z,97744.77
2022-09-23T23:47:01.201Z,97750.30
2022-09-23T23:49:28.627Z,97747.97
2022-09-23T23:51:56.298Z,97748.90
2022-09-23T23:54:23.902Z,97750.06
2022-09-23T23:56:51.514Z,97751.78
2022-09-23T23:59:19.425Z,97744.91
